Time;durP1;ratioP1;P1;durP2;ratioP2;P2;SDS_P1;SDS_P2;PMS_P1;PMS_P2;Temp;Humidity;BMP_temperature;BMP_pressure;BME280_temperature;BME280_humidity;BME280_pressure;Samples;Min_cycle;Max_cycle;Signal;HPM_P1;HPM_P2
2020/12/08 00:01:35;0.00;0.00;0.62;0.00;0.00;0.62;1.40;1.10;;;21.10;29.20;;;;;;2260808;61;20713;-62
2020/12/08 00:04:19;0.00;0.00;0.62;0.00;0.00;0.62;3.10;1.40;;;21.00;29.10;;;;;;2261233;61;20393;-61
2020/12/08 00:07:04;0.00;0.00;0.62;0.00;0.00;0.62;1.63;1.53;;;21.10;29.20;;;;;;2260845;61;20359;-61
2020/12/08 00:09:49;0.00;0.00;0.62;0.00;0.00;0.62;2.17;0.93;;;21.00;29.10;;;;;;2260848;61;20831;-59
2020/12/08 00:12:34;0.00;0.00;0.62;0.00;0.00;0.62;2.90;1.23;;;21.00;29.10;;;;;;2261312;61;20374;-61
2020/12/08 00:15:19;0.00;0.00;0.62;0.00;0.00;0.62;1.40;0.90;;;21.10;29.20;;;;;;2261274;61;20410;-60
2020/12/08 00:18:04;0.00;0.00;0.62;0.00;0.00;0.62;1.67;1.10;;;21.00;29.10;;;;;;2260748;61;20437;-59
2020/12/08 00:20:49;0.00;0.00;0.62;0.00;0.00;0.62;1.50;0.90;;;21.10;29.20;;;;;;2260874;61;20452;-62
2020/12/08 00:23:33;0.00;0.00;0.62;0.00;0.00;0.62;1.40;1.30;;;21.00;29.20;;;;;;2261276;61;20722;-62
2020/12/08 00:26:18;0.00;0.00;0.62;0.00;0.00;0.62;1.20;0.90;;;21.00;29.20;;;;;;2261149;61;20760;-61
2020/12/08 00:29:03;0.00;0.00;0.62;0.00;0.00;0.62;1.20;1.10;;;21.00;29.20;;;;;;2260968;61;20378;-61
2020/12/08 00:31:48;0.00;0.00;0.62;0.00;0.00;0.62;1.10;0.87;;;21.10;29.20;;;;;;2260553;61;20746;-61
2020/12/08 00:34:33;0.00;0.00;0.62;0.00;0.00;0.62;1.43;0.97;;;21.10;29.30;;;;;;2261163;61;20371;-61
2020/12/08 00:37:18;0.00;0.00;0.62;0.00;0.00;0.62;1.20;0.93;;;21.00;29.20;;;;;;2260997;61;20458;-61
2020/12/08 00:40:04;0.00;0.00;0.62;0.00;0.00;0.62;1.13;0.90;;;21.00;29.20;;;;;;2260796;61;20473;-61
2020/12/08 00:42:49;0.00;0.00;0.62;0.00;0.00;0.62;1.50;1.20;;;21.10;29.30;;;;;;2260912;61;20362;-61
2020/12/08 00:45:34;0.00;0.00;0.62;0.00;0.00;0.62;1.10;0.90;;;21.00;29.20;;;;;;2261245;61;20494;-61
2020/12/08 00:48:18;0.00;0.00;0.62;0.00;0.00;0.62;1.30;1.00;;;21.00;29.20;;;;;;2261043;61;20433;-61
2020/12/08 00:51:04;0.00;0.00;0.62;0.00;0.00;0.62;1.30;0.97;;;21.00;29.20;;;;;;2257835;61;20490;-61
2020/12/08 00:53:49;0.00;0.00;0.62;0.00;0.00;0.62;1.20;0.90;;;21.10;29.30;;;;;;2260517;61;20443;-61
2020/12/08 00:56:36;0.00;0.00;0.62;0.00;0.00;0.62;1.27;0.73;;;21.00;29.20;;;;;;2257830;61;20350;-61
2020/12/08 00:59:21;0.00;0.00;0.62;0.00;0.00;0.62;1.40;0.90;;;21.00;29.20;;;;;;2260997;61;20624;-60
2020/12/08 01:02:08;0.00;0.00;0.62;0.00;0.00;0.62;1.37;0.80;;;21.00;29.20;;;;;;2259384;61;20696;-61
2020/12/08 01:04:54;0.00;0.00;0.62;0.00;0.00;0.62;1.20;0.90;;;21.10;29.30;;;;;;2261680;61;20389;-61
2020/12/08 01:07:40;0.00;0.00;0.62;0.00;0.00;0.62;1.53;1.03;;;21.10;29.30;;;;;;2265093;61;20700;-61
2020/12/08 01:10:26;0.00;0.00;0.62;0.00;0.00;0.62;1.00;0.80;;;21.00;29.20;;;;;;2259090;61;20365;-61
2020/12/08 01:13:11;0.00;0.00;0.62;0.00;0.00;0.62;2.13;1.10;;;21.10;29.30;;;;;;2264993;61;20434;-60
2020/12/08 01:15:56;0.00;0.00;0.62;0.00;0.00;0.62;1.20;0.97;;;21.10;29.30;;;;;;2261513;61;20400;-61
2020/12/08 01:18:41;0.00;0.00;0.62;0.00;0.00;0.62;2.37;0.80;;;21.10;29.40;;;;;;2264995;61;20376;-60
2020/12/08 01:21:26;0.00;0.00;0.62;0.00;0.00;0.62;1.37;0.90;;;21.10;29.40;;;;;;2261818;61;20361;-61
2020/12/08 01:24:11;0.00;0.00;0.62;0.00;0.00;0.62;1.30;0.90;;;21.10;29.40;;;;;;2264558;61;20368;-60
2020/12/08 01:26:58;0.00;0.00;0.62;0.00;0.00;0.62;1.10;0.90;;;21.10;29.90;;;;;;2261572;61;20976;-60
2020/12/08 01:29:43;0.00;0.00;0.62;0.00;0.00;0.62;0.90;0.70;;;21.10;29.40;;;;;;2265208;61;20400;-61
2020/12/08 01:32:28;0.00;0.00;0.62;0.00;0.00;0.62;0.90;0.60;;;21.10;29.40;;;;;;2264567;61;20419;-60
2020/12/08 01:35:13;0.00;0.00;0.62;0.00;0.00;0.62;1.13;0.80;;;21.10;29.40;;;;;;2261689;61;20579;-60
2020/12/08 01:37:58;0.00;0.00;0.62;0.00;0.00;0.62;1.40;1.10;;;21.10;29.40;;;;;;2261228;61;20393;-63
2020/12/08 01:40:52;0.00;0.00;0.62;0.00;0.00;0.62;1.20;0.80;;;21.10;29.40;;;;;;2261989;61;20358;-61
2020/12/08 01:43:46;0.00;0.00;0.62;0.00;0.00;0.62;1.40;1.20;;;21.10;29.50;;;;;;2264692;61;20721;-61
2020/12/08 01:46:32;0.00;0.00;0.62;0.00;0.00;0.62;1.00;0.70;;;21.10;29.50;;;;;;2264775;61;20397;-61
2020/12/08 01:49:18;0.00;0.00;0.62;0.00;0.00;0.62;2.03;0.90;;;21.10;29.50;;;;;;2265283;61;20353;-62
2020/12/08 01:52:03;0.00;0.00;0.62;0.00;0.00;0.62;1.20;1.03;;;21.20;29.60;;;;;;2262515;61;20354;-62
2020/12/08 01:54:53;0.00;0.00;0.62;0.00;0.00;0.62;3.60;1.60;;;21.10;29.50;;;;;;2265064;61;20461;-62
2020/12/08 01:57:43;0.00;0.00;0.62;0.00;0.00;0.62;1.70;1.47;;;21.20;29.50;;;;;;2265003;61;20582;-62
2020/12/08 02:00:30;0.00;0.00;0.62;0.00;0.00;0.62;1.90;1.80;;;21.10;29.30;;;;;;2262049;61;20457;-62
2020/12/08 02:03:14;0.00;0.00;0.62;0.00;0.00;0.62;1.70;1.60;;;21.10;29.20;;;;;;2262613;61;20353;-64
2020/12/08 02:06:00;0.00;0.00;0.62;0.00;0.00;0.62;1.67;1.57;;;21.20;29.20;;;;;;2262133;61;20448;-62
2020/12/08 02:08:45;0.00;0.00;0.62;0.00;0.00;0.62;2.57;2.03;;;21.10;29.10;;;;;;2265113;61;20657;-63
2020/12/08 02:11:37;0.00;0.00;0.62;0.00;0.00;0.62;2.03;1.83;;;21.10;29.60;;;;;;2262612;61;20768;-64
2020/12/08 02:14:23;0.00;0.00;0.62;0.00;0.00;0.62;3.63;2.20;;;21.10;29.00;;;;;;2266087;61;20598;-64
2020/12/08 02:17:09;0.00;0.00;0.62;0.00;0.00;0.62;2.40;2.20;;;21.10;29.00;;;;;;2262723;61;20369;-64
2020/12/08 02:19:57;0.00;0.00;0.62;0.00;0.00;0.62;2.40;2.20;;;21.00;28.90;;;;;;2265436;61;20357;-63
2020/12/08 02:22:42;0.00;0.00;0.62;0.00;0.00;0.62;2.33;2.13;;;21.10;28.90;;;;;;2262876;61;20428;-64
2020/12/08 02:25:28;0.00;0.00;0.62;0.00;0.00;0.62;2.27;2.07;;;21.10;28.90;;;;;;2262829;61;20507;-64
2020/12/08 02:28:14;0.00;0.00;0.62;0.00;0.00;0.62;2.87;2.57;;;21.00;28.80;;;;;;2262550;61;20428;-64
2020/12/08 02:30:59;0.00;0.00;0.62;0.00;0.00;0.62;2.30;1.80;;;21.00;28.70;;;;;;2262833;61;20427;-64
2020/12/08 02:33:45;0.00;0.00;0.62;0.00;0.00;0.62;2.57;2.37;;;21.00;28.70;;;;;;2262570;61;20366;-64
2020/12/08 02:36:31;0.00;0.00;0.62;0.00;0.00;0.62;2.50;2.30;;;21.00;28.70;;;;;;2265877;61;20350;-62
2020/12/08 02:39:16;0.00;0.00;0.62;0.00;0.00;0.62;2.87;2.50;;;20.90;28.60;;;;;;2262740;61;20393;-62
2020/12/08 02:42:00;0.00;0.00;0.62;0.00;0.00;0.62;3.23;2.90;;;20.90;28.60;;;;;;2265927;61;20369;-63
2020/12/08 02:44:45;0.00;0.00;0.62;0.00;0.00;0.62;3.20;2.90;;;20.90;28.50;;;;;;2262687;61;20792;-63
2020/12/08 02:47:30;0.00;0.00;0.62;0.00;0.00;0.62;3.60;3.00;;;20.90;28.50;;;;;;2262594;61;20377;-63
2020/12/08 02:50:15;0.00;0.00;0.62;0.00;0.00;0.62;3.33;2.40;;;20.80;28.40;;;;;;2265763;61;20396;-64
2020/12/08 02:53:02;0.00;0.00;0.62;0.00;0.00;0.62;4.23;3.00;;;20.90;28.50;;;;;;2265877;61;20473;-62
2020/12/08 02:55:47;0.00;0.00;0.62;0.00;0.00;0.62;3.00;2.80;;;20.80;28.40;;;;;;2265329;61;20361;-64
2020/12/08 02:58:31;0.00;0.00;0.62;0.00;0.00;0.62;3.27;2.97;;;20.80;28.40;;;;;;2262727;61;20585;-62
2020/12/08 03:01:19;0.00;0.00;0.62;0.00;0.00;0.62;3.80;2.70;;;20.80;28.40;;;;;;2262682;61;20367;-63
2020/12/08 03:04:05;0.00;0.00;0.62;0.00;0.00;0.62;2.70;2.50;;;20.80;28.40;;;;;;2262377;61;20400;-63
2020/12/08 03:06:51;0.00;0.00;0.62;0.00;0.00;0.62;2.80;2.50;;;20.70;28.30;;;;;;2265384;61;20572;-63
2020/12/08 03:09:36;0.00;0.00;0.62;0.00;0.00;0.62;2.50;2.30;;;20.70;28.30;;;;;;2265412;61;20354;-64
2020/12/08 03:12:21;0.00;0.00;0.62;0.00;0.00;0.62;3.30;3.00;;;20.70;28.30;;;;;;2265690;61;20472;-63
2020/12/08 03:15:09;0.00;0.00;0.62;0.00;0.00;0.62;3.30;3.10;;;20.70;28.30;;;;;;2262659;61;20391;-64
2020/12/08 03:17:57;0.00;0.00;0.62;0.00;0.00;0.62;3.10;2.83;;;20.70;28.30;;;;;;2262320;61;20455;-63
2020/12/08 03:20:44;0.00;0.00;0.62;0.00;0.00;0.62;3.37;3.07;;;20.70;28.30;;;;;;2262628;61;20357;-63
2020/12/08 03:23:29;0.00;0.00;0.62;0.00;0.00;0.62;3.33;2.73;;;20.70;28.30;;;;;;2262599;61;20529;-63
2020/12/08 03:26:20;0.00;0.00;0.62;0.00;0.00;0.62;4.37;3.60;;;20.60;28.30;;;;;;2262237;61;20653;-62
2020/12/08 03:29:05;0.00;0.00;0.62;0.00;0.00;0.62;3.70;3.20;;;20.60;28.30;;;;;;2265364;61;20808;-64
2020/12/08 03:31:50;0.00;0.00;0.62;0.00;0.00;0.62;3.10;2.80;;;20.60;28.20;;;;;;2262633;61;20356;-63
2020/12/08 03:34:35;0.00;0.00;0.62;0.00;0.00;0.62;4.50;3.30;;;20.60;28.20;;;;;;2262445;61;20757;-63
2020/12/08 03:37:20;0.00;0.00;0.62;0.00;0.00;0.62;3.77;3.37;;;20.50;28.10;;;;;;2262446;61;20448;-63
2020/12/08 03:40:07;0.00;0.00;0.62;0.00;0.00;0.62;3.53;3.23;;;20.50;28.10;;;;;;2262382;61;20366;-64
2020/12/08 03:42:53;0.00;0.00;0.62;0.00;0.00;0.62;4.03;3.63;;;20.50;28.10;;;;;;2262566;61;20417;-63
2020/12/08 03:45:40;0.00;0.00;0.62;0.00;0.00;0.62;5.90;3.30;;;20.50;28.10;;;;;;2265294;61;20405;-63
2020/12/08 03:48:27;0.00;0.00;0.62;0.00;0.00;0.62;3.50;3.20;;;20.50;28.10;;;;;;2262276;61;20424;-62
2020/12/08 03:51:13;0.00;0.00;0.62;0.00;0.00;0.62;4.07;3.70;;;20.50;28.20;;;;;;2262530;61;20361;-64
2020/12/08 03:53:58;0.00;0.00;0.62;0.00;0.00;0.62;4.30;3.90;;;20.40;28.10;;;;;;2265296;61;20369;-63
2020/12/08 03:56:47;0.00;0.00;0.62;0.00;0.00;0.62;3.53;3.23;;;20.40;28.10;;;;;;2262271;61;20709;-63
2020/12/08 03:59:36;0.00;0.00;0.62;0.00;0.00;0.62;3.40;3.10;;;20.40;28.70;;;;;;2262507;61;20400;-64
2020/12/08 04:02:27;0.00;0.00;0.62;0.00;0.00;0.62;4.00;3.17;;;20.40;28.10;;;;;;2262322;61;20358;-63
2020/12/08 04:05:13;0.00;0.00;0.62;0.00;0.00;0.62;3.30;2.97;;;20.30;28.10;;;;;;2265130;61;20420;-63
2020/12/08 04:07:59;0.00;0.00;0.62;0.00;0.00;0.62;3.30;3.10;;;20.30;28.10;;;;;;2262298;61;20454;-63
2020/12/08 04:10:48;0.00;0.00;0.62;0.00;0.00;0.62;4.20;3.80;;;20.30;28.10;;;;;;2262260;61;20393;-63
2020/12/08 04:13:33;0.00;0.00;0.62;0.00;0.00;0.62;6.80;3.90;;;20.30;28.00;;;;;;2262418;61;20381;-63
2020/12/08 04:16:19;0.00;0.00;0.62;0.00;0.00;0.62;3.67;3.37;;;20.30;28.10;;;;;;2262389;61;20353;-63
2020/12/08 04:19:08;0.00;0.00;0.62;0.00;0.00;0.62;4.60;3.70;;;20.30;28.10;;;;;;2262241;61;20381;-63
2020/12/08 04:21:58;0.00;0.00;0.62;0.00;0.00;0.62;3.90;3.47;;;20.30;28.10;;;;;;2262497;61;20397;-62
2020/12/08 04:24:50;0.00;0.00;0.62;0.00;0.00;0.62;3.70;3.40;;;20.20;28.00;;;;;;2264939;61;20633;-64
2020/12/08 04:27:35;0.00;0.00;0.62;0.00;0.00;0.62;3.50;3.20;;;20.20;28.00;;;;;;2262279;61;20377;-64
2020/12/08 04:30:24;0.00;0.00;0.62;0.00;0.00;0.62;3.60;3.30;;;20.20;28.20;;;;;;2262468;61;20361;-64
2020/12/08 04:33:13;0.00;0.00;0.62;0.00;0.00;0.62;3.80;3.10;;;20.20;28.00;;;;;;2265466;61;20353;-62
2020/12/08 04:35:58;0.00;0.00;0.62;0.00;0.00;0.62;3.90;3.50;;;20.20;28.00;;;;;;2265609;61;20362;-62
2020/12/08 04:38:43;0.00;0.00;0.62;0.00;0.00;0.62;4.43;3.80;;;20.20;28.50;;;;;;2265585;61;20647;-63
2020/12/08 04:41:28;0.00;0.00;0.62;0.00;0.00;0.62;4.80;3.30;;;20.20;28.00;;;;;;2265398;61;20412;-63
2020/12/08 04:44:13;0.00;0.00;0.62;0.00;0.00;0.62;3.30;3.00;;;20.10;27.90;;;;;;2265496;61;20361;-63
2020/12/08 04:46:58;0.00;0.00;0.62;0.00;0.00;0.62;4.30;3.90;;;20.10;28.00;;;;;;2265217;61;20397;-64
2020/12/08 04:49:44;0.00;0.00;0.62;0.00;0.00;0.62;3.63;3.33;;;20.10;28.00;;;;;;2262411;61;20353;-64
2020/12/08 04:52:28;0.00;0.00;0.62;0.00;0.00;0.62;3.63;3.20;;;20.10;28.00;;;;;;2265587;61;20428;-63
2020/12/08 04:55:13;0.00;0.00;0.62;0.00;0.00;0.62;3.73;3.43;;;20.10;27.90;;;;;;2265315;61;20383;-64
2020/12/08 04:57:58;0.00;0.00;0.62;0.00;0.00;0.62;3.43;3.13;;;20.10;27.90;;;;;;2265450;61;20373;-63
2020/12/08 05:00:44;0.00;0.00;0.62;0.00;0.00;0.62;4.37;3.07;;;20.10;27.90;;;;;;2265579;61;20357;-63
2020/12/08 05:03:31;0.00;0.00;0.62;0.00;0.00;0.62;4.10;3.50;;;20.10;28.00;;;;;;2265269;61;20420;-64
2020/12/08 05:06:17;0.00;0.00;0.62;0.00;0.00;0.62;4.20;3.80;;;20.00;27.90;;;;;;2265138;61;20659;-63
2020/12/08 05:09:04;0.00;0.00;0.62;0.00;0.00;0.62;3.77;2.80;;;20.00;27.80;;;;;;2265271;61;20331;-64
2020/12/08 05:11:56;0.00;0.00;0.62;0.00;0.00;0.62;4.10;3.50;;;20.00;27.80;;;;;;2264739;61;20781;-63
2020/12/08 05:14:42;0.00;0.00;0.62;0.00;0.00;0.62;3.97;3.67;;;20.00;27.80;;;;;;2265458;61;20377;-63
2020/12/08 05:17:28;0.00;0.00;0.62;0.00;0.00;0.62;3.20;2.90;;;20.00;27.80;;;;;;2265222;61;20399;-64
2020/12/08 05:20:16;0.00;0.00;0.62;0.00;0.00;0.62;4.13;3.73;;;20.00;27.80;;;;;;2266225;61;20728;-65
2020/12/08 05:23:02;0.00;0.00;0.62;0.00;0.00;0.62;3.93;3.53;;;20.00;27.90;;;;;;2266173;61;20646;-65
2020/12/08 05:25:47;0.00;0.00;0.62;0.00;0.00;0.62;3.70;3.30;;;20.00;27.80;;;;;;2265929;61;20389;-63
2020/12/08 05:28:33;0.00;0.00;0.62;0.00;0.00;0.62;5.00;3.53;;;19.90;27.80;;;;;;2266179;61;20373;-63
2020/12/08 05:31:26;0.00;0.00;0.62;0.00;0.00;0.62;3.90;3.50;;;20.00;27.90;;;;;;2265955;61;20365;-62
2020/12/08 05:34:17;0.00;0.00;0.62;0.00;0.00;0.62;3.83;3.20;;;19.90;27.80;;;;;;2266186;61;20373;-64
2020/12/08 05:37:04;0.00;0.00;0.62;0.00;0.00;0.62;3.43;3.13;;;19.90;27.80;;;;;;2266026;61;20362;-63
2020/12/08 05:39:50;0.00;0.00;0.62;0.00;0.00;0.62;3.87;3.37;;;19.90;27.90;;;;;;2265992;61;20353;-65
2020/12/08 05:42:37;0.00;0.00;0.62;0.00;0.00;0.62;4.00;3.40;;;19.90;27.90;;;;;;2266162;61;20412;-62
2020/12/08 05:45:24;0.00;0.00;0.62;0.00;0.00;0.62;3.70;3.33;;;19.90;27.90;;;;;;2266018;61;20412;-63
2020/12/08 05:48:12;0.00;0.00;0.62;0.00;0.00;0.62;3.80;3.43;;;19.90;27.90;;;;;;2265945;61;20377;-64
2020/12/08 05:51:01;0.00;0.00;0.62;0.00;0.00;0.62;4.10;3.53;;;19.80;27.80;;;;;;2266132;61;20396;-63
2020/12/08 05:53:46;0.00;0.00;0.62;0.00;0.00;0.62;3.33;3.03;;;19.80;27.80;;;;;;2262649;61;20361;-63
2020/12/08 05:56:34;0.00;0.00;0.62;0.00;0.00;0.62;4.30;3.33;;;19.80;27.80;;;;;;2266019;61;20569;-64
2020/12/08 05:59:25;0.00;0.00;0.62;0.00;0.00;0.62;3.50;3.10;;;19.80;27.80;;;;;;2265991;61;20394;-64
2020/12/08 06:02:10;0.00;0.00;0.62;0.00;0.00;0.62;4.20;3.50;;;19.80;27.80;;;;;;2265883;61;20353;-62
2020/12/08 06:04:55;0.00;0.00;0.62;0.00;0.00;0.62;3.57;3.27;;;19.80;27.80;;;;;;2265958;61;20389;-63
2020/12/08 06:07:40;0.00;0.00;0.62;0.00;0.00;0.62;3.77;3.30;;;19.80;27.80;;;;;;2265876;61;20439;-63
2020/12/08 06:10:26;0.00;0.00;0.62;0.00;0.00;0.62;3.60;3.30;;;19.80;27.80;;;;;;2266172;61;20350;-64
2020/12/08 06:13:23;0.00;0.00;0.62;0.00;0.00;0.62;3.40;3.10;;;19.70;27.70;;;;;;2266134;61;20430;-63
2020/12/08 06:16:19;0.00;0.00;0.62;0.00;0.00;0.62;3.90;3.50;;;19.70;27.70;;;;;;2266003;61;20362;-63
2020/12/08 06:19:04;0.00;0.00;0.62;0.00;0.00;0.62;4.30;3.13;;;19.70;27.70;;;;;;2266224;61;20619;-63
2020/12/08 06:21:48;0.00;0.00;0.62;0.00;0.00;0.62;4.80;3.60;;;19.70;27.70;;;;;;2266162;61;20361;-64
2020/12/08 06:24:33;0.00;0.00;0.62;0.00;0.00;0.62;4.73;3.73;;;19.70;27.70;;;;;;2265852;61;20571;-63
2020/12/08 06:27:20;0.00;0.00;0.62;0.00;0.00;0.62;3.90;3.50;;;19.70;27.70;;;;;;2266092;61;20691;-63
2020/12/08 06:30:05;0.00;0.00;0.62;0.00;0.00;0.62;4.37;4.07;;;19.70;27.70;;;;;;2265877;61;20361;-64
2020/12/08 06:32:50;0.00;0.00;0.62;0.00;0.00;0.62;3.70;3.40;;;19.70;27.70;;;;;;2266126;61;20730;-62
2020/12/08 06:35:35;0.00;0.00;0.62;0.00;0.00;0.62;4.30;3.33;;;19.70;27.70;;;;;;2266035;61;20337;-63
2020/12/08 06:38:19;0.00;0.00;0.62;0.00;0.00;0.62;6.93;4.40;;;19.80;27.80;;;;;;2265794;61;20413;-63
2020/12/08 06:41:04;0.00;0.00;0.62;0.00;0.00;0.62;4.90;4.30;;;19.70;27.70;;;;;;2266052;61;20421;-64
2020/12/08 06:43:49;0.00;0.00;0.62;0.00;0.00;0.62;4.43;4.07;;;19.70;27.70;;;;;;2266055;61;20737;-63
2020/12/08 06:46:34;0.00;0.00;0.62;0.00;0.00;0.62;5.20;4.70;;;19.60;27.60;;;;;;2265776;61;20425;-64
2020/12/08 06:49:19;0.00;0.00;0.62;0.00;0.00;0.62;4.03;3.23;;;19.60;27.60;;;;;;2266056;61;20729;-63
2020/12/08 06:52:03;0.00;0.00;0.62;0.00;0.00;0.62;4.00;3.50;;;19.60;27.60;;;;;;2266054;61;20373;-63
2020/12/08 06:54:58;0.00;0.00;0.62;0.00;0.00;0.62;4.80;3.57;;;19.60;27.60;;;;;;2266047;61;20349;-64
2020/12/08 06:57:42;0.00;0.00;0.62;0.00;0.00;0.62;4.73;4.03;;;19.60;27.60;;;;;;2265864;61;20396;-63
2020/12/08 07:00:27;0.00;0.00;0.62;0.00;0.00;0.62;4.63;3.70;;;19.60;27.70;;;;;;2265779;61;20365;-63
2020/12/08 07:03:14;0.00;0.00;0.62;0.00;0.00;0.62;3.67;3.37;;;19.60;27.60;;;;;;2265984;61;20717;-64
2020/12/08 07:05:59;0.00;0.00;0.62;0.00;0.00;0.62;4.50;4.00;;;19.60;27.70;;;;;;2265893;61;20600;-64
2020/12/08 07:08:48;0.00;0.00;0.62;0.00;0.00;0.62;5.83;4.03;;;19.50;27.60;;;;;;2265714;61;20752;-65
2020/12/08 07:11:33;0.00;0.00;0.62;0.00;0.00;0.62;4.80;4.40;;;19.50;27.60;;;;;;2265931;61;20641;-64
2020/12/08 07:14:27;0.00;0.00;0.62;0.00;0.00;0.62;6.73;4.10;;;19.60;27.60;;;;;;2265986;61;20397;-63
2020/12/08 07:17:12;0.00;0.00;0.62;0.00;0.00;0.62;4.70;4.20;;;19.50;27.60;;;;;;2265830;61;20338;-62
2020/12/08 07:19:57;0.00;0.00;0.62;0.00;0.00;0.62;4.30;3.60;;;19.50;27.60;;;;;;2265920;61;20644;-63
2020/12/08 07:22:44;0.00;0.00;0.62;0.00;0.00;0.62;4.50;4.10;;;19.50;27.60;;;;;;2265718;61;20370;-63
2020/12/08 07:25:29;0.00;0.00;0.62;0.00;0.00;0.62;4.50;4.10;;;19.50;27.60;;;;;;2262729;61;20385;-64
2020/12/08 07:28:14;0.00;0.00;0.62;0.00;0.00;0.62;4.60;4.20;;;19.50;27.60;;;;;;2265828;61;20443;-62
2020/12/08 07:30:58;0.00;0.00;0.62;0.00;0.00;0.62;5.07;4.67;;;19.50;27.60;;;;;;2265755;61;20358;-62
2020/12/08 07:33:43;0.00;0.00;0.62;0.00;0.00;0.62;4.57;4.13;;;19.50;27.60;;;;;;2265457;61;20579;-65
2020/12/08 07:36:31;0.00;0.00;0.62;0.00;0.00;0.62;5.27;4.77;;;19.50;27.60;;;;;;2265824;61;20422;-64
2020/12/08 07:39:18;0.00;0.00;0.62;0.00;0.00;0.62;5.20;4.80;;;19.50;27.50;;;;;;2266014;61;20405;-63
2020/12/08 07:42:04;0.00;0.00;0.62;0.00;0.00;0.62;4.87;4.43;;;19.40;27.50;;;;;;2265854;61;20717;-62
2020/12/08 07:44:55;0.00;0.00;0.62;0.00;0.00;0.62;4.43;4.03;;;19.50;27.60;;;;;;2265546;61;20397;-63
2020/12/08 07:47:40;0.00;0.00;0.62;0.00;0.00;0.62;6.00;4.87;;;19.50;27.60;;;;;;2265716;61;20373;-63
2020/12/08 07:50:27;0.00;0.00;0.62;0.00;0.00;0.62;4.60;4.07;;;19.50;27.60;;;;;;2265940;61;20592;-63
2020/12/08 07:53:15;0.00;0.00;0.62;0.00;0.00;0.62;5.17;4.37;;;19.40;27.60;;;;;;2265664;61;20411;-64
2020/12/08 07:56:00;0.00;0.00;0.62;0.00;0.00;0.62;4.40;4.00;;;19.40;27.60;;;;;;2265858;61;20396;-65
2020/12/08 07:58:44;0.00;0.00;0.62;0.00;0.00;0.62;5.73;4.87;;;19.40;27.50;;;;;;2265863;61;20377;-63
2020/12/08 08:01:36;0.00;0.00;0.62;0.00;0.00;0.62;5.40;4.53;;;19.50;27.60;;;;;;2265793;61;20393;-65
2020/12/08 08:04:21;0.00;0.00;0.62;0.00;0.00;0.62;6.23;4.73;;;19.40;27.50;;;;;;2265788;61;20454;-61
2020/12/08 08:07:06;0.00;0.00;0.62;0.00;0.00;0.62;5.27;4.77;;;19.40;28.00;;;;;;2265513;61;20416;-63
2020/12/08 08:09:52;0.00;0.00;0.62;0.00;0.00;0.62;4.87;4.20;;;19.50;27.60;;;;;;2265685;61;20357;-63
2020/12/08 08:12:37;0.00;0.00;0.62;0.00;0.00;0.62;5.40;4.90;;;19.40;27.50;;;;;;2265834;61;20381;-63
2020/12/08 08:15:21;0.00;0.00;0.62;0.00;0.00;0.62;5.30;4.80;;;19.50;27.60;;;;;;2265558;61;20350;-64
2020/12/08 08:18:06;0.00;0.00;0.62;0.00;0.00;0.62;4.60;4.20;;;19.40;27.50;;;;;;2265634;61;20391;-65
2020/12/08 08:20:50;0.00;0.00;0.62;0.00;0.00;0.62;5.57;4.67;;;19.50;28.00;;;;;;2265627;61;20385;-62
2020/12/08 08:23:35;0.00;0.00;0.62;0.00;0.00;0.62;4.40;4.00;;;19.50;27.50;;;;;;2265801;61;20381;-63
2020/12/08 08:26:21;0.00;0.00;0.62;0.00;0.00;0.62;5.47;4.80;;;19.50;27.50;;;;;;2265594;61;20381;-63
2020/12/08 08:29:05;0.00;0.00;0.62;0.00;0.00;0.62;4.73;4.20;;;19.50;27.60;;;;;;2265770;61;20484;-63
2020/12/08 08:31:50;0.00;0.00;0.62;0.00;0.00;0.62;5.07;4.60;;;19.50;27.60;;;;;;2265704;61;20431;-63
2020/12/08 08:34:35;0.00;0.00;0.62;0.00;0.00;0.62;5.30;4.80;;;19.50;27.70;;;;;;2262641;61;20586;-62
2020/12/08 08:37:20;0.00;0.00;0.62;0.00;0.00;0.62;5.67;4.40;;;19.50;27.70;;;;;;2262276;61;20420;-64
2020/12/08 08:40:04;0.00;0.00;0.62;0.00;0.00;0.62;5.20;4.70;;;19.50;27.70;;;;;;2265734;61;20361;-64
2020/12/08 08:42:50;0.00;0.00;0.62;0.00;0.00;0.62;4.83;4.03;;;19.50;27.80;;;;;;2265748;61;20428;-63
2020/12/08 08:45:34;0.00;0.00;0.62;0.00;0.00;0.62;5.20;4.70;;;19.50;27.80;;;;;;2265479;61;20458;-64
2020/12/08 08:48:19;0.00;0.00;0.62;0.00;0.00;0.62;5.77;4.87;;;19.50;27.70;;;;;;2265644;61;20377;-63
2020/12/08 08:51:04;0.00;0.00;0.62;0.00;0.00;0.62;4.43;3.87;;;19.60;27.80;;;;;;2265590;61;20357;-61
2020/12/08 08:53:49;0.00;0.00;0.62;0.00;0.00;0.62;4.10;3.70;;;19.50;27.80;;;;;;2266250;61;20404;-61
2020/12/08 08:56:34;0.00;0.00;0.62;0.00;0.00;0.62;5.07;4.57;;;19.50;27.80;;;;;;2266275;61;20400;-61
2020/12/08 08:59:19;0.00;0.00;0.62;0.00;0.00;0.62;4.47;4.07;;;19.50;27.80;;;;;;2266137;61;20752;-63
2020/12/08 09:02:04;0.00;0.00;0.62;0.00;0.00;0.62;3.50;3.20;;;19.50;27.80;;;;;;2266372;61;20366;-62
2020/12/08 09:04:48;0.00;0.00;0.62;0.00;0.00;0.62;4.47;3.47;;;19.60;28.40;;;;;;2266297;61;20365;-63
2020/12/08 09:07:33;0.00;0.00;0.62;0.00;0.00;0.62;3.73;3.10;;;19.60;27.90;;;;;;2266372;61;20420;-62
2020/12/08 09:10:18;0.00;0.00;0.62;0.00;0.00;0.62;3.37;3.07;;;19.60;27.90;;;;;;2266458;61;20717;-61
2020/12/08 09:13:03;0.00;0.00;0.62;0.00;0.00;0.62;4.10;3.10;;;19.60;27.90;;;;;;2265916;61;20412;-62
2020/12/08 09:15:48;0.00;0.00;0.62;0.00;0.00;0.62;3.87;2.80;;;19.70;27.90;;;;;;2266516;61;20353;-61
2020/12/08 09:18:33;0.00;0.00;0.62;0.00;0.00;0.62;2.60;2.40;;;19.70;28.00;;;;;;2266490;61;20764;-61
2020/12/08 09:21:18;0.00;0.00;0.62;0.00;0.00;0.62;3.33;3.03;;;19.70;28.00;;;;;;2266167;61;20353;-59
2020/12/08 09:24:03;0.00;0.00;0.62;0.00;0.00;0.62;3.40;2.47;;;19.70;28.00;;;;;;2263276;61;20357;-61
2020/12/08 09:26:48;0.00;0.00;0.62;0.00;0.00;0.62;2.53;2.33;;;19.70;28.10;;;;;;2263215;61;20681;-61
2020/12/08 09:29:33;0.00;0.00;0.62;0.00;0.00;0.62;2.90;2.70;;;19.80;28.20;;;;;;2266255;61;20365;-60
2020/12/08 09:32:19;0.00;0.00;0.62;0.00;0.00;0.62;2.23;2.03;;;19.80;28.20;;;;;;2266414;61;20588;-63
2020/12/08 09:35:03;0.00;0.00;0.62;0.00;0.00;0.62;2.43;2.23;;;19.80;28.20;;;;;;2266344;61;20840;-61
2020/12/08 09:37:48;0.00;0.00;0.62;0.00;0.00;0.62;2.03;1.83;;;19.80;28.20;;;;;;2266296;61;20741;-62
2020/12/08 09:40:34;0.00;0.00;0.62;0.00;0.00;0.62;3.30;2.00;;;19.90;28.30;;;;;;2266384;61;20446;-61
2020/12/08 09:43:19;0.00;0.00;0.62;0.00;0.00;0.62;2.20;1.90;;;19.90;28.30;;;;;;2266230;61;20365;-63
2020/12/08 09:46:04;0.00;0.00;0.62;0.00;0.00;0.62;2.87;1.93;;;20.00;28.40;;;;;;2265828;61;20405;-62
2020/12/08 09:48:49;0.00;0.00;0.62;0.00;0.00;0.62;2.20;2.00;;;20.00;28.40;;;;;;2266381;61;20374;-62
2020/12/08 09:51:35;0.00;0.00;0.62;0.00;0.00;0.62;1.80;1.70;;;20.00;28.40;;;;;;2266219;61;20370;-61
2020/12/08 09:54:19;0.00;0.00;0.62;0.00;0.00;0.62;1.93;1.73;;;20.00;28.40;;;;;;2266271;61;20357;-60
2020/12/08 09:57:04;0.00;0.00;0.62;0.00;0.00;0.62;2.53;2.00;;;20.10;28.40;;;;;;2266289;61;20426;-61
2020/12/08 09:59:48;0.00;0.00;0.62;0.00;0.00;0.62;2.87;1.83;;;20.10;28.40;;;;;;2266398;61;20373;-61
2020/12/08 10:02:34;0.00;0.00;0.62;0.00;0.00;0.62;1.90;1.70;;;20.20;28.50;;;;;;2266339;61;20361;-61
2020/12/08 10:05:20;0.00;0.00;0.62;0.00;0.00;0.62;2.20;1.90;;;20.20;28.50;;;;;;2265827;61;20420;-62
2020/12/08 10:08:04;0.00;0.00;0.62;0.00;0.00;0.62;2.27;1.97;;;20.20;28.50;;;;;;2266160;61;20502;-60
2020/12/08 10:10:49;0.00;0.00;0.62;0.00;0.00;0.62;1.97;1.77;;;20.20;28.50;;;;;;2266369;61;20452;-60
2020/12/08 10:13:34;0.00;0.00;0.62;0.00;0.00;0.62;2.30;2.10;;;20.30;28.50;;;;;;2266157;61;20409;-62
2020/12/08 10:16:20;0.00;0.00;0.62;0.00;0.00;0.62;2.00;1.73;;;20.30;28.50;;;;;;2262982;61;20745;-62
2020/12/08 10:19:05;0.00;0.00;0.62;0.00;0.00;0.62;2.00;1.70;;;20.30;28.50;;;;;;2266383;61;20392;-61
2020/12/08 10:21:54;0.00;0.00;0.62;0.00;0.00;0.62;2.73;1.90;;;20.40;28.60;;;;;;2266092;61;20380;-62
2020/12/08 10:24:39;0.00;0.00;0.62;0.00;0.00;0.62;3.00;1.87;;;20.40;28.50;;;;;;2266299;61;20604;-61
2020/12/08 10:27:24;0.00;0.00;0.62;0.00;0.00;0.62;2.20;1.90;;;20.50;28.60;;;;;;2265927;61;20424;-60
2020/12/08 10:30:09;0.00;0.00;0.62;0.00;0.00;0.62;2.37;1.93;;;20.50;28.60;;;;;;2265905;61;20422;-61
2020/12/08 10:32:54;0.00;0.00;0.62;0.00;0.00;0.62;2.00;1.80;;;20.50;29.10;;;;;;2266321;61;20353;-62
2020/12/08 10:35:38;0.00;0.00;0.62;0.00;0.00;0.62;2.00;1.70;;;20.60;28.60;;;;;;2266132;61;20361;-62
2020/12/08 10:38:25;0.00;0.00;0.62;0.00;0.00;0.62;2.90;1.63;;;20.60;28.60;;;;;;2266116;61;20369;-61
2020/12/08 10:41:10;0.00;0.00;0.62;0.00;0.00;0.62;2.20;1.77;;;20.60;28.60;;;;;;2266284;61;20365;-63
2020/12/08 10:43:54;0.00;0.00;0.62;0.00;0.00;0.62;1.63;1.53;;;20.70;28.80;;;;;;2266037;61;20384;-61
2020/12/08 10:46:39;0.00;0.00;0.62;0.00;0.00;0.62;1.70;1.57;;;20.70;28.80;;;;;;2262860;61;20412;-64
2020/12/08 10:49:24;0.00;0.00;0.62;0.00;0.00;0.62;2.73;2.17;;;20.80;28.90;;;;;;2265962;61;20404;-64
2020/12/08 10:52:08;0.00;0.00;0.62;0.00;0.00;0.62;2.13;1.63;;;20.80;28.80;;;;;;2266160;61;20483;-62
2020/12/08 10:54:54;0.00;0.00;0.62;0.00;0.00;0.62;1.80;1.70;;;20.90;28.80;;;;;;2266227;61;20645;-62